createdAt,value
2022-10-22T00:01:24.745Z,87.27
2022-10-22T00:03:53.018Z,93.02
2022-10-22T00:06:21.329Z,95.59
2022-10-22T00:08:51.231Z,93.70
2022-10-22T00:11:21.091Z,93.27
2022-10-22T00:13:49.594Z,96.98
2022-10-22T00:16:17.950Z,100.00
2022-10-22T00:18:46.197Z,100.00
2022-10-22T00:21:14.557Z,95.92
2022-10-22T00:23:43.476Z,91.17
2022-10-22T00:26:13.714Z,90.06
2022-10-22T00:28:41.997Z,86.87
2022-10-22T00:31:10.319Z,85.47
2022-10-22T00:33:38.642Z,87.36
2022-10-22T00:36:07.494Z,93.01
2022-10-22T00:38:36.061Z,98.84
2022-10-22T00:41:04.394Z,100.00
2022-10-22T00:43:34.349Z,100.00
2022-10-22T00:46:02.609Z,100.00
2022-10-22T00:48:34.580Z,100.00
2022-10-22T00:51:05.613Z,96.36
2022-10-22T00:53:37.996Z,94.52
2022-10-22T00:56:07.854Z,91.77
2022-10-22T00:58:41.266Z,89.59
2022-10-22T01:01:14.156Z,87.11
2022-10-22T01:03:42.612Z,90.58
2022-10-22T01:06:16.423Z,95.05
2022-10-22T01:08:51.094Z,87.73
2022-10-22T01:11:28.731Z,86.36
2022-10-22T01:14:05.876Z,88.96
2022-10-22T01:16:38.753Z,90.37
2022-10-22T01:19:28.027Z,88.88
2022-10-22T01:22:02.065Z,86.34
2022-10-22T01:24:42.689Z,86.15
2022-10-22T01:27:21.475Z,85.16
2022-10-22T01:29:54.958Z,82.75
2022-10-22T01:32:26.487Z,83.68
2022-10-22T01:35:01.457Z,91.99
2022-10-22T01:37:33.448Z,90.80
2022-10-22T01:40:03.578Z,87.21
2022-10-22T01:42:31.871Z,87.54
2022-10-22T01:45:01.548Z,85.22
2022-10-22T01:47:42.129Z,83.71
2022-10-22T01:50:43.195Z,85.22
2022-10-22T01:53:22.883Z,91.20
2022-10-22T01:56:05.822Z,87.09
2022-10-22T01:58:43.925Z,87.01
2022-10-22T02:01:23.814Z,85.09
2022-10-22T02:03:58.611Z,84.84
2022-10-22T02:06:29.045Z,85.71
2022-10-22T02:08:59.027Z,86.65
2022-10-22T02:11:27.797Z,85.27
2022-10-22T02:13:59.920Z,84.92
2022-10-22T02:16:33.373Z,84.29
2022-10-22T02:19:07.361Z,84.36
2022-10-22T02:21:35.618Z,84.66
2022-10-22T02:24:03.790Z,84.69
2022-10-22T02:26:38.927Z,84.87
2022-10-22T02:29:14.961Z,85.61
2022-10-22T02:31:48.346Z,88.55
2022-10-22T02:34:23.795Z,89.08
2022-10-22T02:36:53.426Z,86.74
2022-10-22T02:39:22.902Z,84.46
2022-10-22T02:41:51.181Z,84.68
2022-10-22T02:44:23.191Z,83.65
2022-10-22T02:46:52.880Z,84.37
2022-10-22T02:49:21.157Z,83.24
2022-10-22T02:51:50.118Z,82.36
2022-10-22T02:54:18.321Z,82.00
2022-10-22T02:56:46.604Z,81.55
2022-10-22T02:59:14.874Z,82.96
2022-10-22T03:01:44.093Z,83.96
2022-10-22T03:04:13.817Z,82.95
2022-10-22T03:06:44.205Z,82.32
2022-10-22T03:09:12.989Z,82.97
2022-10-22T03:11:41.321Z,81.43
2022-10-22T03:14:09.662Z,80.47
2022-10-22T03:16:37.921Z,79.67
2022-10-22T03:19:06.241Z,79.62
2022-10-22T03:21:40.423Z,78.31
2022-10-22T03:24:14.646Z,79.39
2022-10-22T03:26:44.702Z,80.44
2022-10-22T03:29:15.952Z,79.80
2022-10-22T03:31:44.225Z,84.56
2022-10-22T03:34:13.570Z,92.47
2022-10-22T03:36:43.565Z,99.92
2022-10-22T03:39:13.607Z,98.53
2022-10-22T03:41:42.909Z,100.00
2022-10-22T03:44:11.817Z,100.00
2022-10-22T03:46:40.109Z,100.00
2022-10-22T03:49:08.401Z,93.85
2022-10-22T03:51:37.080Z,90.75
2022-10-22T03:54:07.091Z,94.44
2022-10-22T03:56:35.422Z,93.01
2022-10-22T03:59:03.836Z,90.00
2022-10-22T04:01:33.252Z,86.37
2022-10-22T04:04:01.556Z,89.20
2022-10-22T04:06:31.514Z,92.53
2022-10-22T04:09:01.263Z,90.75
2022-10-22T04:11:31.054Z,87.99
2022-10-22T04:13:59.398Z,88.82
2022-10-22T04:16:31.131Z,87.21
2022-10-22T04:18:59.959Z,86.68
2022-10-22T04:21:28.249Z,90.29
2022-10-22T04:23:56.441Z,87.59
2022-10-22T04:26:25.081Z,86.65
2022-10-22T04:28:55.040Z,88.61
2022-10-22T04:31:25.475Z,84.44
2022-10-22T04:33:56.116Z,81.92
2022-10-22T04:36:25.654Z,82.71
2022-10-22T04:38:55.980Z,83.01
2022-10-22T04:41:26.050Z,81.34
2022-10-22T04:43:56.652Z,84.00
2022-10-22T04:46:26.592Z,81.02
2022-10-22T04:48:54.901Z,85.13
2022-10-22T04:51:25.516Z,85.19
2022-10-22T04:53:53.868Z,83.97
2022-10-22T04:56:25.115Z,79.81
2022-10-22T04:58:58.040Z,79.22
2022-10-22T05:01:29.111Z,77.91
2022-10-22T05:03:59.169Z,80.33
2022-10-22T05:06:28.308Z,83.71
2022-10-22T05:08:58.830Z,89.18
2022-10-22T05:11:29.493Z,95.82
2022-10-22T05:14:00.900Z,94.53
2022-10-22T05:16:30.553Z,99.15
2022-10-22T05:19:00.615Z,100.00
2022-10-22T05:21:29.274Z,100.00
2022-10-22T05:23:59.950Z,100.00
2022-10-22T05:26:29.617Z,100.00
2022-10-22T05:28:59.252Z,100.00
2022-10-22T05:31:28.957Z,100.00
2022-10-22T05:33:57.418Z,99.56
2022-10-22T05:36:25.891Z,98.71
2022-10-22T05:38:54.687Z,99.77
2022-10-22T05:41:24.765Z,98.91
2022-10-22T05:43:55.490Z,99.31
2022-10-22T05:46:27.097Z,93.14
2022-10-22T05:48:57.285Z,91.76
2022-10-22T05:51:26.632Z,91.68
2022-10-22T05:53:56.556Z,92.48
2022-10-22T05:56:26.237Z,91.49
2022-10-22T05:58:54.861Z,88.44
2022-10-22T06:01:27.429Z,91.95
2022-10-22T06:03:56.878Z,96.23
2022-10-22T06:06:35.294Z,98.37
2022-10-22T06:09:06.656Z,95.17
2022-10-22T06:11:35.469Z,90.47
2022-10-22T06:14:04.585Z,88.41
2022-10-22T06:16:34.244Z,87.74
2022-10-22T06:19:03.408Z,84.00
2022-10-22T06:21:32.377Z,82.57
2022-10-22T06:24:01.600Z,80.90
2022-10-22T06:26:30.034Z,76.33
2022-10-22T06:28:59.071Z,76.85
2022-10-22T06:31:28.552Z,79.54
2022-10-22T06:33:58.631Z,79.29
2022-10-22T06:36:26.881Z,83.32
2022-10-22T06:38:56.173Z,86.65
2022-10-22T06:41:28.626Z,88.78
2022-10-22T06:43:58.492Z,85.07
2022-10-22T06:46:27.660Z,84.70
2022-10-22T06:48:59.420Z,81.95
2022-10-22T06:51:28.870Z,83.74
2022-10-22T06:53:58.073Z,84.99
2022-10-22T06:56:28.761Z,85.41
2022-10-22T06:58:58.259Z,85.81
2022-10-22T07:01:28.374Z,82.86
2022-10-22T07:03:58.668Z,83.58
2022-10-22T07:06:28.871Z,78.95
2022-10-22T07:08:58.116Z,75.31
2022-10-22T07:11:28.458Z,73.01
2022-10-22T07:13:58.143Z,71.54
2022-10-22T07:16:31.214Z,65.67
2022-10-22T07:19:02.214Z,65.20
2022-10-22T07:21:31.584Z,65.46
2022-10-22T07:24:00.331Z,63.41
2022-10-22T07:26:32.837Z,61.45
2022-10-22T07:29:01.327Z,60.08
2022-10-22T07:31:29.829Z,58.01
2022-10-22T07:33:58.627Z,57.37
2022-10-22T07:36:28.361Z,58.70
2022-10-22T07:38:58.454Z,57.04
2022-10-22T07:41:28.042Z,58.38
2022-10-22T07:43:56.464Z,57.47
2022-10-22T07:46:25.272Z,58.43
2022-10-22T07:48:54.001Z,58.14
2022-10-22T07:51:22.633Z,57.29
2022-10-22T07:53:55.359Z,57.20
2022-10-22T07:56:23.732Z,56.91
2022-10-22T07:58:52.056Z,57.06
2022-10-22T08:01:20.421Z,55.78
2022-10-22T08:03:49.013Z,55.17
2022-10-22T08:06:17.884Z,52.41
2022-10-22T08:08:47.028Z,50.72
2022-10-22T08:11:16.852Z,51.53
2022-10-22T08:13:45.973Z,50.24
2022-10-22T08:16:15.219Z,49.27
2022-10-22T08:18:43.929Z,48.36
2022-10-22T08:21:12.263Z,46.81
2022-10-22T08:23:40.751Z,47.23
2022-10-22T08:26:09.237Z,45.75
2022-10-22T08:28:38.927Z,45.35
2022-10-22T08:31:08.518Z,45.63
2022-10-22T08:33:37.233Z,42.94
2022-10-22T08:36:06.701Z,43.00
2022-10-22T08:38:35.436Z,42.98
2022-10-22T08:41:11.008Z,42.05
2022-10-22T08:44:05.147Z,42.99
2022-10-22T08:46:56.772Z,42.72
2022-10-22T08:49:29.006Z,42.83
2022-10-22T08:51:58.615Z,40.98
2022-10-22T08:54:44.269Z,42.24
2022-10-22T08:57:27.594Z,40.99
2022-10-22T09:00:06.076Z,38.60
2022-10-22T09:02:45.147Z,38.73
2022-10-22T09:05:29.385Z,39.49
2022-10-22T09:07:58.427Z,38.66
2022-10-22T09:10:31.371Z,37.94
2022-10-22T09:12:59.820Z,38.50
2022-10-22T09:15:31.491Z,37.85
2022-10-22T09:18:12.128Z,36.37
2022-10-22T09:20:46.744Z,37.49
2022-10-22T09:23:25.673Z,36.68
2022-10-22T09:25:55.498Z,35.94
2022-10-22T09:28:23.838Z,35.97
2022-10-22T09:30:53.838Z,35.46
2022-10-22T09:33:26.109Z,35.64
2022-10-22T09:35:56.584Z,35.47
2022-10-22T09:38:27.952Z,37.34
2022-10-22T09:40:58.416Z,37.89
2022-10-22T09:43:26.931Z,36.92
2022-10-22T09:46:00.249Z,36.73
2022-10-22T09:48:32.251Z,37.75
2022-10-22T09:51:11.467Z,37.81
2022-10-22T09:53:43.971Z,37.93
2022-10-22T09:56:22.616Z,37.96
2022-10-22T09:58:52.561Z,39.27
2022-10-22T10:01:25.665Z,38.13
2022-10-22T10:03:54.544Z,37.00
2022-10-22T10:06:24.459Z,37.31
2022-10-22T10:08:52.851Z,36.59
2022-10-22T10:11:29.660Z,36.11
2022-10-22T10:14:09.529Z,35.73
2022-10-22T10:16:59.257Z,36.15
2022-10-22T10:19:44.670Z,32.76
2022-10-22T10:22:28.781Z,34.69
2022-10-22T10:25:19.248Z,34.00
2022-10-22T10:27:55.561Z,33.42
2022-10-22T10:30:27.229Z,34.44
2022-10-22T10:33:11.455Z,31.95
2022-10-22T10:35:47.492Z,32.61
2022-10-22T10:38:33.436Z,32.44
2022-10-22T10:41:09.444Z,32.72
2022-10-22T10:43:47.518Z,34.05
2022-10-22T10:46:23.296Z,33.23
2022-10-22T10:48:57.128Z,33.20
2022-10-22T10:51:37.183Z,31.87
2022-10-22T10:54:17.425Z,33.29
2022-10-22T10:56:50.360Z,33.87
2022-10-22T10:59:24.900Z,32.60
2022-10-22T11:02:32.381Z,32.15
2022-10-22T11:05:29.967Z,30.77
2022-10-22T11:08:02.476Z,30.84
2022-10-22T11:10:37.318Z,31.36
2022-10-22T11:13:12.522Z,31.02
2022-10-22T11:15:42.325Z,32.17
2022-10-22T11:18:19.293Z,31.68
2022-10-22T11:20:56.500Z,31.16
2022-10-22T11:23:31.872Z,30.92
2022-10-22T11:26:02.695Z,30.92
2022-10-22T11:28:35.064Z,30.32
2022-10-22T11:31:08.545Z,31.07
2022-10-22T11:33:44.965Z,31.23
2022-10-22T11:36:15.696Z,30.65
2022-10-22T11:38:44.225Z,29.32
2022-10-22T11:41:15.245Z,28.51
2022-10-22T11:44:07.020Z,29.59
2022-10-22T11:46:46.533Z,30.72
2022-10-22T11:49:25.687Z,30.88
2022-10-22T11:52:23.058Z,29.65
2022-10-22T11:54:56.233Z,28.30
2022-10-22T11:57:29.292Z,29.06
2022-10-22T12:00:01.553Z,29.21
2022-10-22T12:02:44.966Z,28.14
2022-10-22T12:05:43.237Z,27.64
2022-10-22T12:08:23.778Z,29.50
2022-10-22T12:11:04.963Z,31.17
2022-10-22T12:13:35.882Z,31.61
2022-10-22T12:16:05.852Z,29.72
2022-10-22T12:18:42.621Z,28.43
2022-10-22T12:21:14.394Z,28.18
2022-10-22T12:23:46.912Z,28.47
2022-10-22T12:29:04.542Z,26.08
2022-10-22T12:31:38.463Z,25.77
2022-10-22T12:34:08.202Z,26.08
2022-10-22T12:36:37.899Z,26.00
2022-10-22T12:39:15.015Z,26.52
2022-10-22T12:41:44.267Z,27.43
2022-10-22T12:44:14.705Z,26.92
2022-10-22T12:46:45.537Z,27.45
2022-10-22T12:49:18.372Z,27.01
2022-10-22T12:51:47.987Z,27.66
2022-10-22T12:54:27.116Z,26.79
2022-10-22T12:56:56.676Z,26.64
2022-10-22T12:59:28.031Z,28.19
2022-10-22T13:01:57.706Z,28.85
2022-10-22T13:04:37.668Z,27.75
2022-10-22T13:07:19.716Z,27.29
2022-10-22T13:10:00.364Z,27.32
2022-10-22T13:12:35.900Z,27.59
2022-10-22T13:15:23.806Z,27.36
2022-10-22T13:17:52.072Z,28.19
2022-10-22T13:20:23.010Z,27.37
2022-10-22T13:22:58.191Z,28.39
2022-10-22T13:25:30.122Z,28.28
2022-10-22T13:28:00.859Z,29.05
2022-10-22T13:30:30.908Z,30.47
2022-10-22T13:33:01.285Z,30.47
2022-10-22T13:35:32.980Z,30.12
2022-10-22T13:38:01.424Z,29.82
2022-10-22T13:40:31.132Z,29.08
2022-10-22T13:42:59.604Z,29.92
2022-10-22T13:45:28.082Z,30.15
2022-10-22T13:47:57.231Z,29.44
2022-10-22T13:50:25.587Z,29.46
2022-10-22T13:52:56.410Z,29.96
2022-10-22T13:55:26.878Z,29.81
2022-10-22T13:57:57.791Z,30.29
2022-10-22T14:00:26.875Z,30.85
2022-10-22T14:02:58.277Z,30.50
2022-10-22T14:05:26.841Z,30.10
2022-10-22T14:07:55.320Z,30.19
2022-10-22T14:10:25.556Z,31.27
2022-10-22T14:12:54.181Z,32.17
2022-10-22T14:15:25.379Z,32.10
2022-10-22T14:17:56.886Z,33.49
2022-10-22T14:20:29.020Z,34.42
2022-10-22T14:22:57.882Z,35.17
2022-10-22T14:25:28.027Z,35.37
2022-10-22T14:27:56.689Z,37.10
2022-10-22T14:30:29.803Z,38.12
2022-10-22T14:32:59.718Z,39.07
2022-10-22T14:35:27.968Z,40.68
2022-10-22T14:37:58.373Z,39.75
2022-10-22T14:40:26.714Z,40.16
2022-10-22T14:42:55.012Z,39.49
2022-10-22T14:45:27.283Z,41.96
2022-10-22T14:47:56.337Z,42.06
2022-10-22T14:50:25.483Z,41.82
2022-10-22T14:52:53.799Z,42.16
2022-10-22T14:55:22.298Z,43.67
2022-10-22T14:57:50.545Z,45.08
2022-10-22T15:00:21.388Z,46.13
2022-10-22T15:02:51.049Z,46.79
2022-10-22T15:05:19.675Z,46.77
2022-10-22T15:07:47.899Z,47.10
2022-10-22T15:10:16.280Z,47.69
2022-10-22T15:12:44.577Z,46.82
2022-10-22T15:15:13.100Z,47.09
2022-10-22T15:17:41.460Z,47.54
2022-10-22T15:20:11.644Z,47.51
2022-10-22T15:22:40.360Z,47.88
2022-10-22T15:25:10.469Z,48.19
2022-10-22T15:27:38.809Z,48.42
2022-10-22T15:30:09.307Z,48.26
2022-10-22T15:32:37.626Z,49.50
2022-10-22T15:35:08.207Z,49.23
2022-10-22T15:37:41.247Z,49.41
2022-10-22T15:40:10.268Z,49.43
2022-10-22T15:42:38.909Z,49.91
2022-10-22T15:45:09.126Z,49.93
2022-10-22T15:47:37.348Z,50.67
2022-10-22T15:50:06.087Z,50.29
2022-10-22T15:52:34.415Z,50.39
2022-10-22T15:55:07.129Z,50.54
2022-10-22T15:57:35.404Z,51.11
2022-10-22T16:00:03.858Z,51.00
2022-10-22T16:02:32.132Z,51.07
2022-10-22T16:05:00.481Z,51.40
2022-10-22T16:07:28.749Z,51.66
2022-10-22T16:09:57.829Z,51.86
2022-10-22T16:12:27.854Z,50.82
2022-10-22T16:14:56.103Z,51.70
2022-10-22T16:17:24.613Z,51.12
2022-10-22T16:19:52.910Z,50.70
2022-10-22T16:22:21.153Z,50.63
2022-10-22T16:24:49.378Z,50.33
2022-10-22T16:27:17.700Z,50.48
2022-10-22T16:29:47.370Z,51.07
2022-10-22T16:32:16.572Z,49.76
2022-10-22T16:34:44.935Z,50.68
2022-10-22T16:37:13.333Z,52.42
2022-10-22T16:39:41.714Z,49.90
2022-10-22T16:42:10.045Z,50.81
2022-10-22T16:44:38.464Z,48.76
2022-10-22T16:47:08.188Z,48.89
2022-10-22T16:49:36.560Z,49.57
2022-10-22T16:52:06.050Z,49.14
2022-10-22T16:54:34.991Z,51.04
2022-10-22T16:57:04.001Z,53.84
2022-10-22T16:59:32.900Z,49.70
2022-10-22T17:02:01.878Z,49.63
2022-10-22T17:04:31.580Z,49.57
2022-10-22T17:06:59.819Z,49.51
2022-10-22T17:09:28.135Z,49.09
2022-10-22T17:11:56.742Z,48.87
2022-10-22T17:14:25.556Z,50.58
2022-10-22T17:16:54.220Z,52.00
2022-10-22T17:19:24.101Z,51.09
2022-10-22T17:21:54.435Z,51.67
2022-10-22T17:24:23.074Z,53.03
2022-10-22T17:26:51.628Z,53.95
2022-10-22T17:29:22.009Z,52.94
2022-10-22T17:31:50.445Z,52.15
2022-10-22T17:34:18.766Z,51.47
2022-10-22T17:36:47.307Z,51.10
2022-10-22T17:39:19.895Z,50.59
2022-10-22T17:41:48.450Z,50.67
2022-10-22T17:44:17.417Z,49.92
2022-10-22T17:46:46.009Z,51.30
2022-10-22T17:49:18.648Z,52.53
2022-10-22T17:51:47.379Z,52.15
2022-10-22T17:54:17.629Z,51.12
2022-10-22T17:56:46.054Z,51.47
2022-10-22T17:59:16.364Z,51.08
2022-10-22T18:01:45.919Z,51.44
2022-10-22T18:04:17.708Z,52.53
2022-10-22T18:06:47.094Z,52.01
2022-10-22T18:09:19.271Z,51.27
2022-10-22T18:11:47.900Z,52.25
2022-10-22T18:14:16.159Z,51.77
2022-10-22T18:16:44.405Z,51.77
2022-10-22T18:19:15.556Z,51.21
2022-10-22T18:21:44.063Z,51.77
2022-10-22T18:24:12.794Z,51.31
2022-10-22T18:26:42.949Z,51.68
2022-10-22T18:29:12.165Z,52.52
2022-10-22T18:31:40.830Z,51.74
2022-10-22T18:34:09.250Z,53.05
2022-10-22T18:36:38.625Z,54.15
2022-10-22T18:39:07.147Z,53.39
2022-10-22T18:41:36.031Z,53.78
2022-10-22T18:44:08.354Z,56.09
2022-10-22T18:46:38.458Z,55.49
2022-10-22T18:49:08.281Z,54.22
2022-10-22T18:51:37.273Z,53.98
2022-10-22T18:54:21.775Z,53.75
2022-10-22T18:56:51.369Z,53.34
2022-10-22T18:59:23.250Z,53.05
2022-10-22T19:01:53.189Z,53.75
2022-10-22T19:04:21.496Z,53.44
2022-10-22T19:06:49.998Z,53.90
2022-10-22T19:09:18.378Z,54.54
2022-10-22T19:11:47.055Z,54.83
2022-10-22T19:14:19.503Z,54.92
2022-10-22T19:16:49.830Z,54.74
2022-10-22T19:19:20.874Z,55.10
2022-10-22T19:21:50.006Z,54.64
2022-10-22T19:24:20.316Z,55.02
2022-10-22T19:26:49.630Z,55.72
2022-10-22T19:29:19.835Z,58.33
2022-10-22T19:31:51.210Z,59.79
2022-10-22T19:34:19.817Z,59.19
2022-10-22T19:36:48.215Z,58.23
2022-10-22T19:39:17.545Z,57.75
2022-10-22T19:41:45.879Z,58.36
2022-10-22T19:44:14.111Z,57.44
2022-10-22T19:46:42.745Z,56.68
2022-10-22T19:49:12.540Z,57.37
2022-10-22T19:51:41.097Z,56.11
2022-10-22T19:54:15.756Z,56.19
2022-10-22T19:56:44.017Z,56.36
2022-10-22T19:59:12.574Z,56.92
2022-10-22T20:01:40.924Z,56.08
2022-10-22T20:04:09.331Z,56.85
2022-10-22T20:06:39.520Z,55.89
2022-10-22T20:09:07.805Z,56.33
2022-10-22T20:11:35.951Z,55.99
2022-10-22T20:14:04.756Z,56.30
2022-10-22T20:16:33.354Z,56.35
2022-10-22T20:19:02.877Z,56.05
2022-10-22T20:21:32.400Z,56.79
2022-10-22T20:24:03.113Z,56.45
2022-10-22T20:26:31.861Z,56.19
2022-10-22T20:29:00.512Z,56.58
2022-10-22T20:31:30.888Z,57.49
2022-10-22T20:34:01.221Z,57.88
2022-10-22T20:36:31.674Z,57.93
2022-10-22T20:39:03.526Z,57.71
2022-10-22T20:41:31.864Z,58.16
2022-10-22T20:44:00.080Z,58.43
2022-10-22T20:46:30.350Z,58.25
2022-10-22T20:49:01.380Z,58.65
2022-10-22T20:51:29.892Z,59.37
2022-10-22T20:53:58.433Z,59.99
2022-10-22T20:56:28.313Z,61.01
2022-10-22T20:59:04.580Z,59.99
2022-10-22T21:01:35.043Z,60.23
2022-10-22T21:04:03.301Z,59.25
2022-10-22T21:06:31.829Z,58.49
2022-10-22T21:09:00.161Z,58.76
2022-10-22T21:11:29.819Z,58.87
2022-10-22T21:13:58.297Z,58.62
2022-10-22T21:16:26.658Z,59.60
2022-10-22T21:18:54.928Z,59.52
2022-10-22T21:21:23.293Z,59.50
2022-10-22T21:23:51.695Z,61.33
2022-10-22T21:26:20.356Z,61.85
2022-10-22T21:28:50.159Z,60.69
2022-10-22T21:31:22.123Z,59.89
2022-10-22T21:33:51.732Z,60.37
2022-10-22T21:36:22.964Z,62.42
2022-10-22T21:38:52.279Z,61.81
2022-10-22T21:41:22.663Z,61.88
2022-10-22T21:43:52.801Z,61.33
2022-10-22T21:46:22.495Z,61.52
2022-10-22T21:48:54.884Z,61.90
2022-10-22T21:51:24.283Z,61.67
2022-10-22T21:53:53.031Z,62.34
2022-10-22T21:56:23.414Z,61.26
2022-10-22T21:58:53.493Z,60.70
2022-10-22T22:01:22.171Z,61.15
2022-10-22T22:03:51.618Z,61.61
2022-10-22T22:06:22.014Z,60.77
2022-10-22T22:08:51.088Z,61.55
2022-10-22T22:11:21.599Z,61.97
2022-10-22T22:13:50.167Z,62.26
2022-10-22T22:16:25.401Z,63.33
2022-10-22T22:18:57.153Z,62.45
2022-10-22T22:21:25.469Z,62.68
2022-10-22T22:23:53.710Z,61.94
2022-10-22T22:26:28.244Z,61.91
2022-10-22T22:28:59.412Z,61.78
2022-10-22T22:31:30.831Z,62.64
2022-10-22T22:34:03.749Z,62.72
2022-10-22T22:36:35.873Z,62.29
2022-10-22T22:39:04.783Z,62.38
2022-10-22T22:41:33.004Z,62.38
2022-10-22T22:44:01.662Z,62.45
2022-10-22T22:46:31.392Z,63.17
2022-10-22T22:48:59.837Z,62.86
2022-10-22T22:51:28.544Z,63.36
2022-10-22T22:53:58.428Z,63.64
2022-10-22T22:56:28.444Z,65.67
2022-10-22T22:58:56.934Z,64.35
2022-10-22T23:01:27.304Z,68.00
2022-10-22T23:03:59.350Z,66.59
2022-10-22T23:06:29.026Z,65.64
2022-10-22T23:08:58.102Z,65.42
2022-10-22T23:11:27.572Z,64.91
2022-10-22T23:13:58.554Z,64.61
2022-10-22T23:16:28.607Z,64.46
2022-10-22T23:18:59.104Z,63.60
2022-10-22T23:21:29.412Z,66.58
2022-10-22T23:23:59.315Z,67.39
2022-10-22T23:26:30.114Z,65.95
2022-10-22T23:29:02.139Z,67.96
2022-10-22T23:31:30.495Z,66.81
2022-10-22T23:34:00.399Z,69.18
2022-10-22T23:36:29.263Z,69.85
2022-10-22T23:38:58.183Z,69.55
2022-10-22T23:41:26.477Z,68.37
2022-10-22T23:43:54.725Z,69.15
2022-10-22T23:46:23.047Z,69.80
2022-10-22T23:48:53.848Z,67.49
2022-10-22T23:51:23.929Z,67.84
2022-10-22T23:53:57.264Z,67.15
2022-10-22T23:56:26.296Z,66.81
2022-10-22T23:58:55.884Z,67.70
